Time;durP1;ratioP1;P1;durP2;ratioP2;P2;SDS_P1;SDS_P2;PMS_P1;PMS_P2;Temp;Humidity;BMP_temperature;BMP_pressure;BME280_temperature;BME280_humidity;BME280_pressure;Samples;Min_cycle;Max_cycle;Signal;HPM_P1;HPM_P2
2024/01/14 00:00:54;;;;;;;137.85;47.22;;;;;;;3.54;100.00;101527.59;5100143;27;20040;-73
2024/01/14 00:03:19;;;;;;;144.77;47.03;;;;;;;3.61;100.00;101527.44;5094227;27;20106;-73
2024/01/14 00:05:45;;;;;;;144.90;47.55;;;;;;;3.66;100.00;101524.66;5079762;27;20389;-73
2024/01/14 00:08:10;;;;;;;143.18;46.50;;;;;;;3.61;100.00;101516.00;5095572;27;20748;-73
2024/01/14 00:10:36;;;;;;;161.10;50.17;;;;;;;3.67;100.00;101529.06;5095725;27;20047;-73
2024/01/14 00:13:02;;;;;;;144.02;45.80;;;;;;;3.59;100.00;101526.59;5094276;27;20371;-72
2024/01/14 00:15:27;;;;;;;144.25;47.42;;;;;;;3.69;100.00;101534.28;5100721;27;20039;-72
2024/01/14 00:17:53;;;;;;;139.48;45.50;;;;;;;3.71;100.00;101514.88;5097720;27;20036;-72
2024/01/14 00:20:18;;;;;;;130.80;44.45;;;;;;;3.62;100.00;101507.19;5103270;27;20043;-73
2024/01/14 00:22:44;;;;;;;151.10;48.08;;;;;;;3.60;100.00;101507.22;5081332;27;20068;-73
2024/01/14 00:25:11;;;;;;;126.35;44.00;;;;;;;3.57;100.00;101503.81;5086840;27;20972;-73
2024/01/14 00:27:37;;;;;;;131.00;43.78;;;;;;;3.55;100.00;101502.94;5093270;27;20198;-74
2024/01/14 00:30:04;;;;;;;133.27;44.17;;;;;;;3.52;100.00;101503.91;5088574;27;20065;-72
2024/01/14 00:32:29;;;;;;;142.45;46.78;;;;;;;3.58;100.00;101500.25;5101641;27;20028;-73
2024/01/14 00:34:55;;;;;;;133.32;45.38;;;;;;;3.55;100.00;101497.69;5099893;27;20945;-73
2024/01/14 00:37:20;;;;;;;139.50;46.63;;;;;;;3.58;100.00;101490.56;5096704;27;20044;-73
2024/01/14 00:39:46;;;;;;;144.93;48.30;;;;;;;3.57;100.00;101483.56;5067640;27;20056;-75
2024/01/14 00:42:11;;;;;;;134.23;46.80;;;;;;;3.56;100.00;101489.72;5084721;27;20915;-74
2024/01/14 00:44:41;;;;;;;146.32;45.47;;;;;;;3.46;100.00;101477.66;5100123;27;20845;-73
2024/01/14 00:47:07;;;;;;;153.80;49.83;;;;;;;3.56;100.00;101479.19;5094721;27;20027;-73
2024/01/14 00:49:32;;;;;;;155.73;48.65;;;;;;;3.58;100.00;101482.66;5094049;27;20853;-75
2024/01/14 00:51:58;;;;;;;137.45;46.80;;;;;;;3.58;100.00;101480.03;5094054;27;20065;-73
2024/01/14 00:54:23;;;;;;;135.98;47.22;;;;;;;3.60;100.00;101475.56;5089683;27;20117;-73
2024/01/14 00:56:49;;;;;;;142.55;45.65;;;;;;;3.56;100.00;101473.91;5092720;27;20481;-73
2024/01/14 00:59:14;;;;;;;124.35;43.15;;;;;;;3.46;100.00;101467.13;5059046;27;20668;-73
2024/01/14 01:01:40;;;;;;;126.57;40.95;;;;;;;3.53;100.00;101457.31;5078183;27;20572;-74
2024/01/14 01:04:05;;;;;;;120.28;42.03;;;;;;;3.56;100.00;101452.81;5094466;27;20024;-76
2024/01/14 01:06:31;;;;;;;121.97;41.28;;;;;;;3.50;100.00;101452.09;5094820;27;20552;-74
2024/01/14 01:08:56;;;;;;;134.32;45.05;;;;;;;3.57;100.00;101451.94;5091382;27;20477;-72
2024/01/14 01:11:21;;;;;;;129.75;44.35;;;;;;;3.55;100.00;101458.13;5098555;27;20039;-75
2024/01/14 01:13:47;;;;;;;135.73;44.83;;;;;;;3.49;100.00;101453.00;5098896;27;20418;-74
2024/01/14 01:16:13;;;;;;;138.63;45.22;;;;;;;3.43;100.00;101445.25;5095652;27;20888;-75
2024/01/14 01:18:39;;;;;;;125.10;42.08;;;;;;;3.41;100.00;101447.03;5086895;27;20036;-74
2024/01/14 01:21:04;;;;;;;136.70;45.97;;;;;;;3.40;100.00;101440.06;5086882;27;20676;-75
2024/01/14 01:23:30;;;;;;;118.35;40.03;;;;;;;3.36;100.00;101445.41;5098292;27;20055;-74
2024/01/14 01:25:55;;;;;;;144.70;47.05;;;;;;;3.48;100.00;101441.59;5097610;27;20032;-74
2024/01/14 01:28:22;;;;;;;130.55;43.25;;;;;;;3.49;100.00;101435.41;5095102;27;20032;-74
2024/01/14 01:30:47;;;;;;;145.98;47.25;;;;;;;3.46;100.00;101435.47;5091148;27;20560;-74
2024/01/14 01:33:13;;;;;;;151.85;47.63;;;;;;;3.51;100.00;101443.28;5095734;27;20697;-74
2024/01/14 01:35:38;;;;;;;152.80;47.38;;;;;;;3.47;100.00;101431.97;5097407;27;20043;-74
2024/01/14 01:38:04;;;;;;;155.75;49.88;;;;;;;3.50;100.00;101444.19;5088670;27;20653;-74
2024/01/14 01:40:30;;;;;;;165.55;50.22;;;;;;;3.57;100.00;101449.28;5084497;27;20047;-74
2024/01/14 01:42:55;;;;;;;165.75;49.15;;;;;;;3.45;100.00;101446.06;5089430;27;20734;-74
2024/01/14 01:45:21;;;;;;;152.10;48.80;;;;;;;3.51;100.00;101440.66;5069072;27;20444;-73
2024/01/14 01:47:47;;;;;;;177.13;53.15;;;;;;;3.47;100.00;101441.66;5091514;27;20594;-74
2024/01/14 01:50:13;;;;;;;186.20;51.33;;;;;;;3.50;100.00;101445.06;5085653;27;20494;-74
2024/01/14 01:52:40;;;;;;;175.30;51.90;;;;;;;3.46;100.00;101437.25;5074675;27;20038;-73
2024/01/14 01:55:06;;;;;;;191.02;55.72;;;;;;;3.52;100.00;101424.81;5093734;27;20039;-74
2024/01/14 01:57:33;;;;;;;161.65;49.72;;;;;;;3.46;100.00;101424.06;5078089;27;20111;-73
2024/01/14 01:59:59;;;;;;;170.40;55.75;;;;;;;3.57;100.00;101422.94;5072638;27;20093;-74
2024/01/14 02:02:25;;;;;;;158.90;48.65;;;;;;;3.95;100.00;101422.84;5091912;27;20102;-74
2024/01/14 02:04:51;;;;;;;173.52;53.17;;;;;;;4.14;100.00;101406.47;5093078;27;20125;-74
2024/01/14 02:07:20;;;;;;;170.63;54.10;;;;;;;4.18;100.00;101390.56;5077473;27;20033;-74
2024/01/14 02:09:45;;;;;;;183.63;52.97;;;;;;;4.29;100.00;101385.81;5076771;28;20120;-74
2024/01/14 02:12:11;;;;;;;186.23;55.58;;;;;;;4.29;100.00;101378.75;5084866;27;20987;-74
2024/01/14 02:14:36;;;;;;;168.32;51.35;;;;;;;4.36;100.00;101376.81;5098951;27;20030;-73
2024/01/14 02:17:02;;;;;;;213.90;59.75;;;;;;;4.21;100.00;101366.69;5084766;27;20764;-74
2024/01/14 02:19:27;;;;;;;186.20;57.00;;;;;;;4.27;100.00;101369.19;5087645;27;20774;-74
2024/01/14 02:22:06;;;;;;;185.63;57.47;;;;;;;4.33;100.00;101364.56;5062152;27;20035;-74
2024/01/14 02:24:33;;;;;;;196.43;59.65;;;;;;;4.33;100.00;101354.00;5071169;28;20078;-74
2024/01/14 02:26:59;;;;;;;200.82;56.03;;;;;;;4.42;100.00;101360.81;5077478;27;20020;-74
2024/01/14 02:29:29;;;;;;;178.02;55.50;;;;;;;4.18;100.00;101357.09;5092817;27;20194;-73
2024/01/14 02:31:56;;;;;;;169.98;53.47;;;;;;;4.35;100.00;101360.09;5093754;27;20082;-74
2024/01/14 02:34:21;;;;;;;178.82;54.65;;;;;;;4.27;100.00;101356.84;5058831;28;20606;-74
2024/01/14 02:36:47;;;;;;;179.07;56.75;;;;;;;4.33;100.00;101358.44;5083511;27;20682;-74
2024/01/14 02:39:12;;;;;;;179.40;58.28;;;;;;;4.23;100.00;101346.41;5096601;27;20044;-74
2024/01/14 02:41:38;;;;;;;175.55;56.65;;;;;;;4.31;100.00;101345.25;5092403;27;20040;-74
2024/01/14 02:44:03;;;;;;;170.15;52.28;;;;;;;4.10;100.00;101344.09;5068083;28;20115;-74
2024/01/14 02:46:29;;;;;;;185.57;57.15;;;;;;;4.14;100.00;101345.75;5094885;27;20135;-74
2024/01/14 02:48:55;;;;;;;186.40;58.55;;;;;;;4.25;100.00;101337.53;5090661;27;20028;-74
2024/01/14 02:51:22;;;;;;;202.93;58.80;;;;;;;4.31;100.00;101331.19;5088307;27;20044;-73
2024/01/14 02:53:47;;;;;;;192.88;60.88;;;;;;;4.30;100.00;101322.41;5071300;28;20813;-73
2024/01/14 02:56:13;;;;;;;222.80;64.15;;;;;;;4.36;100.00;101332.78;5090659;27;20045;-74
2024/01/14 02:58:39;;;;;;;215.85;66.00;;;;;;;4.42;100.00;101321.19;5075733;27;20982;-73
2024/01/14 03:01:05;;;;;;;221.07;66.15;;;;;;;4.48;100.00;101318.38;5060555;28;20051;-73
2024/01/14 03:03:30;;;;;;;219.95;65.70;;;;;;;4.39;100.00;101314.22;5075430;27;20035;-73
2024/01/14 03:05:56;;;;;;;226.35;68.90;;;;;;;4.52;100.00;101309.44;5090646;27;20038;-74
2024/01/14 03:08:22;;;;;;;224.82;66.65;;;;;;;4.60;100.00;101303.91;5075485;27;20113;-74
2024/01/14 03:10:48;;;;;;;228.18;67.57;;;;;;;4.65;100.00;101299.34;5075831;27;20162;-73
2024/01/14 03:13:15;;;;;;;212.35;65.85;;;;;;;4.49;100.00;101291.03;5090643;27;20039;-74
2024/01/14 03:15:44;;;;;;;210.65;63.22;;;;;;;4.29;100.00;101291.66;5075114;27;20040;-73
2024/01/14 03:18:10;;;;;;;200.50;66.95;;;;;;;4.43;100.00;101290.38;5075982;27;20036;-73
2024/01/14 03:20:36;;;;;;;210.40;65.57;;;;;;;4.46;100.00;101287.63;5095141;27;20153;-73
2024/01/14 03:23:02;;;;;;;236.52;69.47;;;;;;;4.54;100.00;101285.63;5086964;27;20020;-73
2024/01/14 03:25:27;;;;;;;204.27;64.55;;;;;;;4.50;100.00;101281.34;5091754;27;20108;-73
2024/01/14 03:27:53;;;;;;;205.45;64.53;;;;;;;4.62;100.00;101280.97;5076740;27;20052;-73
2024/01/14 03:30:18;;;;;;;208.25;66.15;;;;;;;4.72;100.00;101282.41;5092994;27;20062;-73
2024/01/14 03:32:44;;;;;;;201.52;61.55;;;;;;;4.64;100.00;101274.72;5092615;27;20032;-73
2024/01/14 03:35:09;;;;;;;198.57;65.47;;;;;;;4.93;100.00;101276.41;5095058;27;20048;-73
2024/01/14 03:37:35;;;;;;;202.50;66.28;;;;;;;5.11;100.00;101264.34;5096384;27;23458;-73
2024/01/14 03:40:01;;;;;;;210.25;66.13;;;;;;;5.05;100.00;101263.72;5098926;27;20040;-73
2024/01/14 03:42:27;;;;;;;196.18;63.50;;;;;;;5.05;100.00;101261.94;5076781;27;20036;-73
2024/01/14 03:44:52;;;;;;;229.30;70.13;;;;;;;5.19;100.00;101256.19;5089499;27;20029;-73
2024/01/14 03:47:18;;;;;;;193.32;64.07;;;;;;;4.99;100.00;101250.72;5099512;27;20504;-73
2024/01/14 03:49:43;;;;;;;208.82;67.32;;;;;;;5.03;100.00;101257.63;5089756;27;20041;-73
2024/01/14 03:52:09;;;;;;;221.32;69.00;;;;;;;5.05;100.00;101253.13;5089786;27;20276;-73
2024/01/14 03:54:34;;;;;;;198.57;64.00;;;;;;;5.01;100.00;101248.88;5072107;28;20043;-73
2024/01/14 03:57:00;;;;;;;198.13;64.68;;;;;;;5.05;100.00;101246.06;5089634;27;20028;-73
2024/01/14 03:59:25;;;;;;;207.90;66.47;;;;;;;4.95;100.00;101239.38;5090040;27;20032;-73
2024/01/14 04:01:51;;;;;;;245.52;73.38;;;;;;;5.07;100.00;101246.00;5101260;27;20055;-73
2024/01/14 04:04:17;;;;;;;216.10;67.40;;;;;;;5.03;100.00;101249.69;5095753;27;20032;-73
2024/01/14 04:06:42;;;;;;;233.07;71.60;;;;;;;5.15;100.00;101243.97;5096036;27;20039;-73
2024/01/14 04:09:08;;;;;;;232.15;71.55;;;;;;;5.05;100.00;101235.50;5090066;27;20103;-73
2024/01/14 04:11:34;;;;;;;207.50;66.78;;;;;;;4.85;100.00;101240.59;5088891;27;20035;-73
2024/01/14 04:13:59;;;;;;;234.30;70.22;;;;;;;4.73;100.00;101233.94;5097426;27;20401;-74
2024/01/14 04:16:25;;;;;;;220.88;70.82;;;;;;;4.82;100.00;101236.28;5099042;27;20028;-74
2024/01/14 04:18:50;;;;;;;248.93;73.78;;;;;;;4.84;100.00;101229.16;5092943;27;20043;-73
2024/01/14 04:21:23;;;;;;;244.02;74.03;;;;;;;5.03;100.00;101232.06;5095833;27;20032;-73
2024/01/14 04:23:49;;;;;;;;;;;;;;;3.66;100.00;101231.06;5093432;27;20168;-74
2024/01/14 04:26:21;;;;;;;254.02;75.43;;;;;;;3.35;100.00;101248.59;5078456;27;19987;-73
2024/01/14 04:28:48;;;;;;;200.13;66.47;;;;;;;3.19;100.00;101256.97;5071369;28;20028;-73
2024/01/14 04:31:14;;;;;;;192.85;66.57;;;;;;;3.17;100.00;101264.06;5077091;27;20481;-73
2024/01/14 04:33:39;;;;;;;196.07;65.38;;;;;;;3.19;100.00;101270.16;5076933;27;20036;-73
2024/01/14 04:36:05;;;;;;;183.18;61.55;;;;;;;3.20;100.00;101269.25;5078629;27;20027;-73
2024/01/14 04:38:31;;;;;;;187.20;59.92;;;;;;;3.09;100.00;101273.00;5080329;27;20047;-73
2024/01/14 04:40:57;;;;;;;176.15;60.38;;;;;;;3.16;100.00;101265.81;5058691;27;20159;-72
2024/01/14 04:43:22;;;;;;;178.48;61.08;;;;;;;3.16;100.00;101270.22;5079613;27;20036;-73
2024/01/14 04:45:48;;;;;;;184.13;59.85;;;;;;;3.25;100.00;101268.22;5091087;27;20024;-73
2024/01/14 04:48:13;;;;;;;177.18;58.28;;;;;;;3.20;100.00;101259.56;5087861;27;20032;-73
2024/01/14 04:50:39;;;;;;;190.10;62.60;;;;;;;3.32;100.00;101250.50;5089813;27;20081;-72
2024/01/14 04:53:05;;;;;;;201.70;64.05;;;;;;;3.42;100.00;101251.97;5094123;27;20027;-73
2024/01/14 04:55:31;;;;;;;193.48;63.10;;;;;;;3.29;100.00;101254.06;5098802;27;20104;-72
2024/01/14 04:57:57;;;;;;;192.63;64.88;;;;;;;3.27;100.00;101262.91;5092552;27;20036;-72
2024/01/14 05:00:23;;;;;;;200.63;64.63;;;;;;;3.32;100.00;101258.41;5096736;27;20070;-73
2024/01/14 05:02:49;;;;;;;205.43;65.43;;;;;;;3.24;100.00;101257.72;5095164;27;20028;-73
2024/01/14 05:05:15;;;;;;;211.00;71.57;;;;;;;3.40;100.00;101248.50;5095408;27;20093;-73
2024/01/14 05:07:40;;;;;;;203.10;66.57;;;;;;;4.70;100.00;101239.31;5081676;27;20033;-73
2024/01/14 05:10:09;;;;;;;197.93;65.57;;;;;;;4.76;100.00;101211.84;5093638;27;20779;-73
2024/01/14 05:12:35;;;;;;;205.80;66.85;;;;;;;5.17;100.00;101197.19;5095135;27;20035;-73
2024/01/14 05:15:00;;;;;;;213.25;65.55;;;;;;;5.20;100.00;101189.16;5095891;27;20194;-73
2024/01/14 05:17:26;;;;;;;202.13;65.88;;;;;;;5.26;100.00;101185.44;5079605;27;20112;-74
2024/01/14 05:19:52;;;;;;;208.75;66.00;;;;;;;5.31;100.00;101181.69;5076405;27;20540;-73
2024/01/14 05:22:18;;;;;;;195.65;64.07;;;;;;;5.19;100.00;101183.00;5093322;27;20097;-72
2024/01/14 05:24:43;;;;;;;197.68;63.90;;;;;;;5.05;100.00;101182.63;5100429;27;20072;-73
2024/01/14 05:27:12;;;;;;;203.45;65.90;;;;;;;5.31;100.00;101192.28;5088639;27;20842;-73
2024/01/14 05:29:42;;;;;;;200.48;65.88;;;;;;;5.18;100.00;101168.09;5095962;27;20185;-73
2024/01/14 05:32:12;;;;;;;186.40;62.42;;;;;;;5.10;100.00;101169.25;5096721;27;20528;-73
2024/01/14 05:34:38;;;;;;;188.13;61.30;;;;;;;5.17;100.00;101179.56;5098802;27;20041;-73
2024/01/14 05:37:05;;;;;;;196.25;65.97;;;;;;;5.04;100.00;101175.63;5087473;27;20036;-72
2024/01/14 05:39:30;;;;;;;178.10;61.53;;;;;;;5.20;100.00;101170.66;5102629;27;20035;-72
2024/01/14 05:41:56;;;;;;;178.98;61.15;;;;;;;4.97;100.00;101170.59;5092063;27;20036;-72
2024/01/14 05:44:21;;;;;;;176.30;62.38;;;;;;;5.13;100.00;101164.75;5087022;27;20048;-73
2024/01/14 05:46:47;;;;;;;180.15;61.15;;;;;;;4.87;100.00;101162.13;5087906;27;20032;-73
2024/01/14 05:49:12;;;;;;;173.32;61.30;;;;;;;4.88;100.00;101158.59;5074888;27;20410;-72
2024/01/14 05:51:39;;;;;;;175.15;59.03;;;;;;;4.97;100.00;101160.03;5093283;27;20036;-72
2024/01/14 05:54:04;;;;;;;180.82;61.42;;;;;;;5.17;100.00;101153.16;5094803;27;20292;-73
2024/01/14 05:56:30;;;;;;;173.32;58.88;;;;;;;5.07;100.00;101146.47;5101490;27;20120;-73
2024/01/14 05:58:56;;;;;;;166.93;58.40;;;;;;;4.95;100.00;101154.81;5092814;27;20028;-73
2024/01/14 06:01:22;;;;;;;171.32;58.83;;;;;;;5.08;100.00;101148.19;5098844;27;20036;-73
2024/01/14 06:03:47;;;;;;;167.35;60.60;;;;;;;5.09;100.00;101144.63;5096729;27;20047;-72
2024/01/14 06:06:13;;;;;;;171.43;60.05;;;;;;;5.12;100.00;101143.63;5093918;27;20050;-73
2024/01/14 06:08:40;;;;;;;168.70;57.33;;;;;;;5.04;100.00;101133.34;5097536;27;20039;-73
2024/01/14 06:11:06;;;;;;;161.10;57.75;;;;;;;4.78;100.00;101134.28;5091338;27;20051;-73
2024/01/14 06:13:32;;;;;;;163.35;57.60;;;;;;;5.04;100.00;101132.47;5086292;27;20608;-73
2024/01/14 06:15:58;;;;;;;152.07;56.95;;;;;;;5.15;100.00;101122.38;5090843;27;20043;-73
2024/01/14 06:18:23;;;;;;;163.32;58.55;;;;;;;4.99;100.00;101123.84;5071942;27;20036;-73
2024/01/14 06:20:49;;;;;;;155.70;55.75;;;;;;;4.83;100.00;101118.25;5096442;27;20040;-72
2024/01/14 06:23:14;;;;;;;154.52;56.65;;;;;;;5.10;100.00;101106.69;5088362;27;20044;-72
2024/01/14 06:25:40;;;;;;;156.45;57.22;;;;;;;4.80;100.00;101106.00;5094499;27;20036;-72
2024/01/14 06:28:06;;;;;;;142.55;54.08;;;;;;;4.99;100.00;101089.50;5090802;27;20040;-72
2024/01/14 06:30:32;;;;;;;159.38;57.90;;;;;;;4.87;100.00;101098.72;5071203;27;20045;-73
2024/01/14 06:32:58;;;;;;;157.07;60.15;;;;;;;5.03;100.00;101099.91;5093883;27;20020;-74
2024/01/14 06:35:24;;;;;;;174.38;60.45;;;;;;;4.94;100.00;101089.66;5092628;27;21062;-73
2024/01/14 06:37:50;;;;;;;170.00;59.15;;;;;;;5.09;100.00;101096.19;5090523;27;20024;-72
2024/01/14 06:40:16;;;;;;;163.20;55.67;;;;;;;5.12;100.00;101093.41;5094843;27;20051;-73
2024/01/14 06:42:42;;;;;;;182.10;62.63;;;;;;;5.27;100.00;101094.63;5071528;27;20040;-72
2024/01/14 06:45:08;;;;;;;179.00;63.13;;;;;;;5.13;100.00;101088.09;5097680;27;20113;-72
2024/01/14 06:47:34;;;;;;;199.82;66.13;;;;;;;5.30;100.00;101089.22;5092756;27;20107;-73
2024/01/14 06:50:00;;;;;;;181.48;65.40;;;;;;;5.26;100.00;101077.03;5092193;27;20049;-73
2024/01/14 06:52:25;;;;;;;168.63;61.53;;;;;;;5.04;100.00;101082.28;5091982;27;20038;-73
2024/01/14 06:54:51;;;;;;;158.55;62.13;;;;;;;4.93;100.00;101078.25;5094916;27;20926;-73
2024/01/14 06:57:17;;;;;;;181.30;62.60;;;;;;;5.08;100.00;101078.59;5091209;27;20036;-73
2024/01/14 06:59:44;;;;;;;172.27;62.35;;;;;;;5.12;100.00;101069.63;5086552;27;20968;-73
2024/01/14 07:02:13;;;;;;;184.95;63.22;;;;;;;5.07;100.00;101074.22;5086165;27;20040;-73
2024/01/14 07:04:39;;;;;;;178.27;62.58;;;;;;;4.97;100.00;101067.53;5091418;27;20033;-73
2024/01/14 07:07:05;;;;;;;169.48;60.58;;;;;;;5.29;100.00;101075.16;5092356;27;20042;-73
2024/01/14 07:09:30;;;;;;;178.05;61.75;;;;;;;5.12;100.00;101062.56;5097012;27;20078;-73
2024/01/14 07:11:56;;;;;;;186.80;65.00;;;;;;;5.29;100.00;101074.28;5089606;27;20043;-73
2024/01/14 07:14:22;;;;;;;169.13;62.30;;;;;;;5.12;100.00;101077.53;5095294;27;20982;-73
2024/01/14 07:16:48;;;;;;;161.30;62.63;;;;;;;5.13;100.00;101068.72;5091337;27;20020;-73
2024/01/14 07:19:15;;;;;;;173.52;63.08;;;;;;;4.87;100.00;101073.19;5089146;27;20554;-73
2024/01/14 07:21:40;;;;;;;161.05;60.42;;;;;;;5.33;100.00;101074.13;5064971;27;20997;-73
2024/01/14 07:24:06;;;;;;;170.23;61.92;;;;;;;5.10;100.00;101071.47;5093980;27;20039;-73
2024/01/14 07:26:31;;;;;;;174.23;62.72;;;;;;;5.18;100.00;101072.06;5093653;27;20032;-73
2024/01/14 07:28:57;;;;;;;166.43;61.00;;;;;;;5.37;100.00;101069.56;5087085;27;22942;-73
2024/01/14 07:31:27;;;;;;;173.13;61.15;;;;;;;5.05;100.00;101079.56;5093199;27;20766;-73
2024/01/14 07:33:52;;;;;;;166.35;60.22;;;;;;;3.99;100.00;101078.84;5092870;27;20679;-73
2024/01/14 07:36:18;;;;;;;169.35;57.28;;;;;;;5.20;100.00;101080.78;5087610;27;20032;-73
2024/01/14 07:38:44;;;;;;;172.02;61.47;;;;;;;5.05;100.00;101074.28;5086351;27;20110;-73
2024/01/14 07:41:13;;;;;;;177.23;62.45;;;;;;;5.27;100.00;101069.06;5089618;27;20074;-73
2024/01/14 07:43:39;;;;;;;167.48;60.95;;;;;;;5.38;100.00;101064.22;5071231;27;20041;-73
2024/01/14 07:46:06;;;;;;;169.18;63.03;;;;;;;4.88;100.00;101061.69;5077553;28;20142;-72
2024/01/14 07:48:32;;;;;;;168.85;59.28;;;;;;;5.17;100.00;101063.28;5095371;27;20044;-73
2024/01/14 07:50:57;;;;;;;165.57;59.60;;;;;;;5.19;100.00;101068.47;5090093;27;20068;-72
2024/01/14 07:53:24;;;;;;;169.25;61.33;;;;;;;5.03;100.00;101072.63;5099659;27;20048;-73
2024/01/14 07:55:49;;;;;;;170.45;60.55;;;;;;;4.97;100.00;101071.06;5090426;27;20095;-73
2024/01/14 07:58:15;;;;;;;163.30;59.47;;;;;;;5.19;100.00;101060.56;5091708;27;20060;-72
2024/01/14 08:00:42;;;;;;;172.98;61.28;;;;;;;4.94;100.00;101066.75;5098348;27;20024;-73
2024/01/14 08:03:07;;;;;;;165.50;60.70;;;;;;;4.85;100.00;101066.22;5097097;27;20036;-73
2024/01/14 08:05:35;;;;;;;180.60;62.55;;;;;;;4.94;100.00;101076.47;5091167;27;20077;-73
2024/01/14 08:08:02;;;;;;;179.80;63.15;;;;;;;5.30;100.00;101076.00;5091591;27;20031;-73
2024/01/14 08:10:28;;;;;;;178.85;63.30;;;;;;;4.97;100.00;101072.81;5093771;27;20059;-73
2024/01/14 08:12:53;;;;;;;178.48;63.97;;;;;;;4.96;100.00;101077.25;5105348;27;20035;-73
2024/01/14 08:15:18;;;;;;;179.52;65.10;;;;;;;5.17;100.00;101072.94;5102497;27;20824;-72
2024/01/14 08:17:44;;;;;;;191.52;67.85;;;;;;;5.22;100.00;101072.78;5088770;27;20074;-73
2024/01/14 08:20:11;;;;;;;185.13;66.43;;;;;;;5.00;100.00;101073.59;5097901;27;20032;-74
2024/01/14 08:22:37;;;;;;;186.82;63.47;;;;;;;5.08;100.00;101073.31;5094719;27;20135;-72
2024/01/14 08:25:04;;;;;;;181.60;65.40;;;;;;;5.22;100.00;101072.78;5092483;27;20037;-73
2024/01/14 08:27:30;;;;;;;166.32;62.53;;;;;;;5.06;100.00;101064.56;5097083;27;20027;-72
2024/01/14 08:29:55;;;;;;;184.63;62.83;;;;;;;5.27;100.00;101061.13;5088181;27;20599;-73
2024/01/14 08:32:21;;;;;;;173.85;62.25;;;;;;;5.25;100.00;101057.69;5085192;27;20039;-73
2024/01/14 08:34:47;;;;;;;170.20;61.72;;;;;;;5.40;100.00;101054.44;5098830;27;20822;-73
2024/01/14 08:37:12;;;;;;;164.40;59.33;;;;;;;5.06;100.00;101061.91;5087508;27;20427;-73
2024/01/14 08:39:38;;;;;;;179.52;61.15;;;;;;;5.24;100.00;101063.88;5102155;27;20401;-72
2024/01/14 08:42:03;;;;;;;188.45;64.53;;;;;;;5.36;100.00;101052.84;5081212;28;20387;-73
2024/01/14 08:44:29;;;;;;;164.30;57.15;;;;;;;5.04;100.00;101046.13;5099436;27;20113;-73
2024/01/14 08:46:54;;;;;;;173.18;59.92;;;;;;;5.08;100.00;101052.19;5079262;27;20035;-73
2024/01/14 08:49:20;;;;;;;175.57;63.42;;;;;;;5.13;100.00;101052.88;5094330;27;20036;-73
2024/01/14 08:51:46;;;;;;;176.63;62.75;;;;;;;5.04;100.00;101046.13;5072972;27;20042;-73
2024/01/14 08:54:11;;;;;;;180.40;64.97;;;;;;;5.13;100.00;101042.28;5096128;27;20028;-72
2024/01/14 08:56:37;;;;;;;167.57;59.15;;;;;;;5.12;100.00;101041.44;5085349;27;20035;-73
2024/01/14 08:59:03;;;;;;;177.18;60.72;;;;;;;3.30;100.00;101046.72;5096923;27;20039;-73
2024/01/14 09:01:29;;;;;;;169.32;60.53;;;;;;;3.10;100.00;101063.13;5093842;27;20031;-73
2024/01/14 09:03:54;;;;;;;170.32;61.28;;;;;;;3.07;100.00;101057.97;5090407;27;20067;-73
2024/01/14 09:06:20;;;;;;;175.43;61.35;;;;;;;2.99;100.00;101060.78;5093430;27;20031;-73
2024/01/14 09:08:45;;;;;;;170.13;58.42;;;;;;;2.95;100.00;101068.81;5086409;27;20028;-73
2024/01/14 09:11:11;;;;;;;165.77;60.03;;;;;;;2.87;100.00;101063.78;5088305;27;20067;-73
2024/01/14 09:13:36;;;;;;;146.80;54.08;;;;;;;2.83;100.00;101064.78;5090258;27;20033;-73
2024/01/14 09:16:02;;;;;;;161.40;57.13;;;;;;;3.00;100.00;101069.56;5087964;27;24787;-73
2024/01/14 09:18:28;;;;;;;152.82;55.05;;;;;;;2.94;100.00;101069.75;5094454;27;20063;-73
2024/01/14 09:20:53;;;;;;;163.55;57.17;;;;;;;3.07;100.00;101068.50;5059003;27;20287;-73
2024/01/14 09:23:19;;;;;;;157.02;54.58;;;;;;;3.14;100.00;101067.41;5094480;27;20109;-73
2024/01/14 09:25:45;;;;;;;141.52;52.25;;;;;;;2.92;100.00;101059.25;5083860;27;20044;-73
2024/01/14 09:28:10;;;;;;;140.70;49.47;;;;;;;2.93;100.00;101062.75;5089350;27;20144;-73
2024/01/14 09:30:36;;;;;;;158.48;52.70;;;;;;;2.94;100.00;101064.47;5087248;27;20031;-72
2024/01/14 09:33:01;;;;;;;145.30;52.97;;;;;;;2.89;100.00;101069.88;5088593;27;20035;-73
2024/01/14 09:35:27;;;;;;;153.50;52.60;;;;;;;2.93;100.00;101070.66;5088172;27;20062;-72
2024/01/14 09:37:53;;;;;;;153.05;51.90;;;;;;;2.97;100.00;101064.41;5092691;27;20032;-73
2024/01/14 09:40:18;;;;;;;139.07;50.00;;;;;;;2.98;100.00;101060.84;5091468;27;20044;-73
2024/01/14 09:42:44;;;;;;;148.05;52.42;;;;;;;3.08;100.00;101055.25;5070638;27;20059;-73
2024/01/14 09:45:10;;;;;;;148.27;51.47;;;;;;;3.30;100.00;101052.00;5094674;27;20051;-73
2024/01/14 09:47:37;;;;;;;143.88;51.80;;;;;;;3.42;100.00;101050.78;5092894;27;20035;-73
2024/01/14 09:50:04;;;;;;;127.45;48.35;;;;;;;3.34;100.00;101046.59;5075982;28;20050;-73
2024/01/14 09:52:33;;;;;;;121.38;47.28;;;;;;;3.28;100.00;101045.91;5092259;27;20102;-73
2024/01/14 09:54:58;;;;;;;132.93;48.42;;;;;;;3.31;100.00;101038.78;5092825;27;20053;-73
2024/01/14 09:57:25;;;;;;;127.63;48.45;;;;;;;3.41;100.00;101043.75;5097085;27;20072;-73
2024/01/14 09:59:51;;;;;;;127.47;47.63;;;;;;;3.40;100.00;101042.03;5098219;27;20054;-73
2024/01/14 10:02:17;;;;;;;124.80;47.97;;;;;;;3.35;100.00;101045.66;5098158;27;20039;-73
2024/01/14 10:04:43;;;;;;;120.30;48.25;;;;;;;3.23;100.00;101046.06;5090020;27;20251;-73
2024/01/14 10:07:09;;;;;;;121.07;46.78;;;;;;;3.25;100.00;101049.50;5097040;27;20059;-72
2024/01/14 10:09:36;;;;;;;122.72;46.85;;;;;;;3.28;100.00;101038.00;5077307;28;20226;-72
2024/01/14 10:12:02;;;;;;;123.65;44.10;;;;;;;3.14;100.00;101041.03;5091005;27;20493;-73
2024/01/14 10:14:28;;;;;;;116.38;47.60;;;;;;;3.29;100.00;101045.00;5089866;27;20036;-73
2024/01/14 10:17:00;;;;;;;119.53;46.58;;;;;;;3.20;100.00;101040.00;5088780;27;20047;-73
2024/01/14 10:19:25;;;;;;;121.18;49.03;;;;;;;3.22;100.00;101023.25;5093410;27;20045;-72
2024/01/14 10:21:53;;;;;;;135.50;48.92;;;;;;;3.30;100.00;101034.41;5098643;27;20104;-73
2024/01/14 10:24:19;;;;;;;124.78;48.35;;;;;;;3.37;100.00;101029.84;5100281;27;20019;-73
2024/01/14 10:26:44;;;;;;;132.00;48.13;;;;;;;3.32;100.00;101014.16;5092555;27;20016;-73
2024/01/14 10:29:10;;;;;;;116.15;47.08;;;;;;;3.35;100.00;101013.19;5097437;27;20934;-73
2024/01/14 10:31:36;;;;;;;127.43;46.75;;;;;;;3.37;100.00;101014.00;5083809;27;20097;-72
2024/01/14 10:34:02;;;;;;;116.75;47.40;;;;;;;3.29;100.00;101006.34;5097377;27;20042;-73
2024/01/14 10:36:32;;;;;;;125.80;49.55;;;;;;;3.46;100.00;100999.66;5094940;27;20028;-73
2024/01/14 10:39:03;;;;;;;124.38;46.30;;;;;;;3.29;100.00;100993.16;5094988;27;20867;-73
2024/01/14 10:41:28;;;;;;;121.95;50.40;;;;;;;3.50;100.00;100996.03;5094473;27;20158;-73
2024/01/14 10:43:54;;;;;;;110.82;46.55;;;;;;;3.55;100.00;100992.31;5094891;27;20656;-73
2024/01/14 10:46:22;;;;;;;118.57;44.28;;;;;;;3.53;100.00;100986.25;5094514;27;20520;-73
2024/01/14 10:49:05;;;;;;;129.70;48.00;;;;;;;3.66;100.00;100978.78;5088332;27;20036;-73
2024/01/14 10:51:32;;;;;;;117.00;47.15;;;;;;;3.42;100.00;100984.88;5091214;27;20049;-73
2024/01/14 10:54:18;;;;;;;118.13;45.30;;;;;;;3.50;100.00;100977.56;5094426;27;20039;-73
2024/01/14 10:56:50;;;;;;;126.18;50.38;;;;;;;3.60;100.00;100976.38;5078356;27;20044;-73